Time;durP1;ratioP1;P1;durP2;ratioP2;P2;SDS_P1;SDS_P2;PMS_P1;PMS_P2;Temp;Humidity;BMP_temperature;BMP_pressure;BME280_temperature;BME280_humidity;BME280_pressure;Samples;Min_cycle;Max_cycle;Signal;HPM_P1;HPM_P2
2022/12/30 00:01:35;;;;;;;22.50;10.83;;;;;;;;;;5035183;28;20228;-63
2022/12/30 00:04:02;;;;;;;22.33;11.53;;;;;;;;;;5034662;28;20200;-63
2022/12/30 00:06:29;;;;;;;18.10;10.70;;;;;;;;;;5034717;28;20204;-63
2022/12/30 00:08:57;;;;;;;28.40;14.20;;;;;;;;;;5034940;28;20381;-63
2022/12/30 00:11:28;;;;;;;25.07;12.33;;;;;;;;;;5034679;28;20201;-65
2022/12/30 00:33:53;;;;;;;18.83;10.60;;;;;;;;;;5033792;28;20209;-63
2022/12/30 00:36:23;;;;;;;16.70;10.60;;;;;;;;;;5034142;28;20237;-64
2022/12/30 00:38:50;;;;;;;20.57;10.83;;;;;;;;;;5034645;28;20216;-63
2022/12/30 00:44:03;;;;;;;16.23;9.77;;;;;;;;;;5034369;28;20600;-63
2022/12/30 00:46:31;;;;;;;20.80;10.70;;;;;;;;;;5033531;28;20217;-64
2022/12/30 00:57:15;;;;;;;19.53;10.37;;;;;;;;;;5034053;28;20543;-63
2022/12/30 00:59:42;;;;;;;21.87;11.87;;;;;;;;;;5034257;28;20212;-63
2022/12/30 01:02:10;;;;;;;22.17;13.27;;;;;;;;;;5033821;28;20551;-63
2022/12/30 01:04:37;;;;;;;20.97;11.97;;;;;;;;;;5033773;28;20236;-63
2022/12/30 01:07:04;;;;;;;18.93;9.57;;;;;;;;;;5033862;28;20580;-63
2022/12/30 01:09:34;;;;;;;21.33;10.73;;;;;;;;;;5034101;28;20637;-64
2022/12/30 01:12:08;;;;;;;17.47;10.13;;;;;;;;;;5034250;28;20207;-64
2022/12/30 01:14:39;;;;;;;16.93;9.90;;;;;;;;;;5034146;28;20192;-64
2022/12/30 01:17:09;;;;;;;18.43;10.67;;;;;;;;;;5033871;28;20216;-63
2022/12/30 01:19:37;;;;;;;18.20;10.47;;;;;;;;;;5033470;28;20266;-65
2022/12/30 01:22:05;;;;;;;17.30;10.50;;;;;;;;;;5034163;28;20196;-65
2022/12/30 01:24:32;;;;;;;19.40;10.67;;;;;;;;;;5033591;28;20286;-65
2022/12/30 01:27:00;;;;;;;21.40;12.03;;;;;;;;;;5032892;28;20232;-63
2022/12/30 01:29:28;;;;;;;21.47;10.47;;;;;;;;;;5033878;28;20208;-63
2022/12/30 01:31:57;;;;;;;22.77;11.13;;;;;;;;;;5035594;28;20667;-64
2022/12/30 01:34:24;;;;;;;19.17;11.00;;;;;;;;;;5037774;28;20287;-63
2022/12/30 01:36:52;;;;;;;21.10;10.83;;;;;;;;;;5037605;28;20665;-64
2022/12/30 01:39:19;;;;;;;21.10;10.40;;;;;;;;;;5037806;28;20200;-64
2022/12/30 01:41:47;;;;;;;20.77;10.53;;;;;;;;;;5037509;28;20200;-64
2022/12/30 01:44:50;;;;;;;19.90;10.80;;;;;;;;;;5037823;28;20216;-64
2022/12/30 01:47:40;;;;;;;17.27;10.23;;;;;;;;;;5036672;28;20204;-64
2022/12/30 01:50:10;;;;;;;19.90;11.30;;;;;;;;;;5037434;28;20224;-64
2022/12/30 01:52:48;;;;;;;19.63;11.00;;;;;;;;;;5037195;28;20200;-64
2022/12/30 01:55:20;;;;;;;18.50;10.43;;;;;;;;;;5036381;28;20212;-63
2022/12/30 01:57:50;;;;;;;18.37;11.00;;;;;;;;;;5036494;28;20213;-63
2022/12/30 02:00:18;;;;;;;23.33;11.10;;;;;;;;;;5036247;28;20197;-63
2022/12/30 02:02:45;;;;;;;19.90;11.17;;;;;;;;;;5037073;28;20274;-64
2022/12/30 02:05:13;;;;;;;21.87;11.93;;;;;;;;;;5036099;28;20224;-64
2022/12/30 02:07:51;;;;;;;25.33;13.67;;;;;;;;;;5036339;28;20205;-64
2022/12/30 02:10:19;;;;;;;19.67;10.63;;;;;;;;;;5036239;28;20208;-63
2022/12/30 02:12:46;;;;;;;20.30;11.87;;;;;;;;;;5036168;28;20212;-63
2022/12/30 02:15:14;;;;;;;20.40;11.50;;;;;;;;;;5037119;28;20208;-63
2022/12/30 02:17:53;;;;;;;26.63;12.10;;;;;;;;;;5036810;28;20636;-63
2022/12/30 02:20:50;;;;;;;21.87;11.20;;;;;;;;;;5036107;28;20227;-62
2022/12/30 02:23:32;;;;;;;19.73;10.30;;;;;;;;;;5035519;28;20197;-63
2022/12/30 02:26:08;;;;;;;23.80;10.67;;;;;;;;;;5036614;28;20240;-63
2022/12/30 02:29:06;;;;;;;24.23;11.00;;;;;;;;;;5036891;28;20212;-63
2022/12/30 02:31:54;;;;;;;20.13;11.30;;;;;;;;;;5034865;28;20200;-64
2022/12/30 02:34:33;;;;;;;20.90;10.90;;;;;;;;;;5016246;28;20193;-64
2022/12/30 02:37:03;;;;;;;19.20;10.30;;;;;;;;;;5017003;28;20237;-65
2022/12/30 02:39:43;;;;;;;19.70;11.20;;;;;;;;;;5016674;28;20661;-64
2022/12/30 02:45:10;;;;;;;32.53;17.83;;;;;;;;;;5015999;28;20227;-63
2022/12/30 02:47:50;;;;;;;23.60;11.60;;;;;;;;;;5016003;28;20189;-63
2022/12/30 02:53:12;;;;;;;19.97;11.33;;;;;;;;;;5015890;28;20264;-62
2022/12/30 02:55:40;;;;;;;21.70;11.33;;;;;;;;;;5015661;28;20205;-63
2022/12/30 02:58:07;;;;;;;23.20;10.83;;;;;;;;;;5015542;28;20217;-63
2022/12/30 03:03:57;;;;;;;20.07;10.33;;;;;;;;;;5015691;28;20209;-64
2022/12/30 03:06:36;;;;;;;24.97;12.87;;;;;;;;;;5015775;28;20259;-64
2022/12/30 03:13:15;;;;;;;23.13;11.50;;;;;;;;;;4934671;29;20543;-63
2022/12/30 03:15:48;;;;;;;22.50;12.33;;;;;;;;;;4936715;29;20208;-64
2022/12/30 03:18:16;;;;;;;19.07;11.07;;;;;;;;;;4921138;29;20275;-63
2022/12/30 03:20:44;;;;;;;24.23;10.80;;;;;;;;;;4921013;29;20267;-63
2022/12/30 03:28:48;;;;;;;21.43;11.80;;;;;;;;;;4936521;29;20267;-65
2022/12/30 03:31:16;;;;;;;25.97;13.23;;;;;;;;;;4936513;29;20226;-64
2022/12/30 03:33:44;;;;;;;21.90;11.77;;;;;;;;;;4936479;29;20205;-65
2022/12/30 03:36:14;;;;;;;21.40;11.77;;;;;;;;;;4936161;29;20235;-64
2022/12/30 03:38:47;;;;;;;22.43;11.63;;;;;;;;;;4936323;29;20196;-64
2022/12/30 03:41:14;;;;;;;21.97;12.23;;;;;;;;;;4936303;29;20243;-64
2022/12/30 03:43:43;;;;;;;19.23;11.63;;;;;;;;;;4936495;29;20659;-64
2022/12/30 03:46:10;;;;;;;27.03;13.93;;;;;;;;;;4936171;29;20620;-65
2022/12/30 03:48:37;;;;;;;20.90;11.97;;;;;;;;;;4994056;28;20544;-65
2022/12/30 03:51:04;;;;;;;26.03;12.53;;;;;;;;;;5015503;28;20209;-64
2022/12/30 03:53:32;;;;;;;21.20;12.30;;;;;;;;;;5015315;28;20205;-64
2022/12/30 03:55:59;;;;;;;25.53;12.13;;;;;;;;;;5015078;28;20212;-64
2022/12/30 03:58:26;;;;;;;24.23;12.00;;;;;;;;;;5015383;28;20278;-63
2022/12/30 04:00:53;;;;;;;23.97;12.07;;;;;;;;;;5015452;28;20205;-65
2022/12/30 04:03:20;;;;;;;22.53;12.10;;;;;;;;;;5015180;28;20205;-64
2022/12/30 04:05:52;;;;;;;65.77;30.37;;;;;;;;;;5015194;28;20221;-64
2022/12/30 04:08:21;;;;;;;44.30;22.87;;;;;;;;;;5015380;28;20255;-64
2022/12/30 04:10:48;;;;;;;23.40;12.67;;;;;;;;;;5015163;28;20628;-64
2022/12/30 04:13:16;;;;;;;23.97;13.20;;;;;;;;;;5015260;28;20213;-64
2022/12/30 04:15:51;;;;;;;22.40;12.23;;;;;;;;;;5015160;28;20205;-64
2022/12/30 04:18:18;;;;;;;23.67;11.87;;;;;;;;;;5014842;28;20217;-63
2022/12/30 04:20:46;;;;;;;25.90;13.17;;;;;;;;;;5015100;28;20206;-63
2022/12/30 04:23:15;;;;;;;22.37;11.53;;;;;;;;;;5014927;28;20205;-63
2022/12/30 04:25:42;;;;;;;24.17;11.90;;;;;;;;;;5014601;28;20688;-63
2022/12/30 04:28:09;;;;;;;45.17;20.40;;;;;;;;;;5014973;28;20213;-63
2022/12/30 04:30:36;;;;;;;25.87;13.73;;;;;;;;;;5014654;28;20276;-64
2022/12/30 04:33:03;;;;;;;30.33;14.47;;;;;;;;;;5014832;28;20513;-64
2022/12/30 04:35:30;;;;;;;28.80;14.27;;;;;;;;;;5014780;28;20220;-63
2022/12/30 04:37:58;;;;;;;26.00;12.87;;;;;;;;;;5014822;28;20237;-64
2022/12/30 04:40:25;;;;;;;23.77;12.30;;;;;;;;;;5014798;28;20271;-64
2022/12/30 04:42:52;;;;;;;25.40;13.07;;;;;;;;;;5034367;28;20208;-64
2022/12/30 04:45:19;;;;;;;101.43;47.60;;;;;;;;;;5033986;28;20204;-63
2022/12/30 04:47:46;;;;;;;31.87;16.37;;;;;;;;;;5034396;28;20197;-65
2022/12/30 04:50:13;;;;;;;22.80;12.77;;;;;;;;;;5034266;28;20205;-64
2022/12/30 04:52:41;;;;;;;22.10;11.53;;;;;;;;;;5033129;28;20209;-64
2022/12/30 04:55:08;;;;;;;20.83;11.83;;;;;;;;;;5032335;28;20342;-64
2022/12/30 04:57:35;;;;;;;25.43;13.30;;;;;;;;;;5027803;28;20205;-64
2022/12/30 05:00:05;;;;;;;20.13;11.67;;;;;;;;;;5028553;28;20626;-63
2022/12/30 05:02:32;;;;;;;52.50;28.20;;;;;;;;;;5033383;28;20243;-64
2022/12/30 05:04:59;;;;;;;37.23;23.57;;;;;;;;;;5033688;28;20514;-63
2022/12/30 05:07:27;;;;;;;35.23;18.77;;;;;;;;;;5031308;28;20220;-64
2022/12/30 05:09:54;;;;;;;40.67;19.07;;;;;;;;;;5010568;28;20301;-64
2022/12/30 05:12:21;;;;;;;33.63;19.00;;;;;;;;;;5013432;28;20307;-63
2022/12/30 05:14:48;;;;;;;29.73;16.07;;;;;;;;;;5013376;28;20233;-63
2022/12/30 05:17:15;;;;;;;28.93;17.17;;;;;;;;;;5013813;28;20233;-63
2022/12/30 05:19:42;;;;;;;194.37;70.80;;;;;;;;;;5013299;28;20701;-63
2022/12/30 05:22:09;;;;;;;37.23;22.60;;;;;;;;;;5014057;28;20276;-63
2022/12/30 05:27:23;;;;;;;21.87;13.03;;;;;;;;;;5021637;28;20224;-62
2022/12/30 05:29:49;;;;;;;23.93;13.57;;;;;;;;;;5029650;28;20239;-63
2022/12/30 05:32:17;;;;;;;22.27;12.63;;;;;;;;;;5033122;28;20552;-62
2022/12/30 05:34:44;;;;;;;25.10;13.03;;;;;;;;;;5033148;28;20256;-62
2022/12/30 05:37:11;;;;;;;24.47;12.90;;;;;;;;;;5032329;28;20240;-63
2022/12/30 05:39:38;;;;;;;23.07;12.30;;;;;;;;;;5032917;28;20604;-63
2022/12/30 05:42:05;;;;;;;26.57;13.23;;;;;;;;;;5033104;28;20236;-62
2022/12/30 05:44:32;;;;;;;21.20;12.40;;;;;;;;;;5033139;28;20294;-62
2022/12/30 05:47:00;;;;;;;22.63;11.67;;;;;;;;;;5033044;28;20233;-63
2022/12/30 05:49:26;;;;;;;19.40;11.30;;;;;;;;;;5032966;28;20649;-63
2022/12/30 05:51:54;;;;;;;47.50;27.93;;;;;;;;;;5033385;28;20201;-63
2022/12/30 05:54:21;;;;;;;40.10;20.30;;;;;;;;;;5033211;28;20224;-63
2022/12/30 05:56:48;;;;;;;41.27;22.63;;;;;;;;;;5033625;28;20228;-62
2022/12/30 05:59:15;;;;;;;34.23;16.43;;;;;;;;;;5033597;28;20221;-62
2022/12/30 06:01:42;;;;;;;17.13;11.30;;;;;;;;;;5033203;28;20213;-63
2022/12/30 06:04:09;;;;;;;22.43;13.80;;;;;;;;;;5032430;28;20669;-63
2022/12/30 06:06:37;;;;;;;25.00;13.03;;;;;;;;;;5033201;28;20235;-63
2022/12/30 06:09:04;;;;;;;34.30;14.23;;;;;;;;;;5033342;28;20618;-63
2022/12/30 06:11:31;;;;;;;26.70;14.33;;;;;;;;;;5033054;28;20200;-63
2022/12/30 06:13:58;;;;;;;24.30;13.10;;;;;;;;;;5033126;28;20232;-63
2022/12/30 06:16:25;;;;;;;27.03;14.90;;;;;;;;;;5033126;28;20668;-63
2022/12/30 06:18:52;;;;;;;23.23;12.93;;;;;;;;;;5036035;28;20920;-63
2022/12/30 06:21:20;;;;;;;21.80;12.47;;;;;;;;;;5036921;28;20231;-64
2022/12/30 06:23:47;;;;;;;22.70;12.37;;;;;;;;;;5036606;28;20287;-64
2022/12/30 06:26:15;;;;;;;20.53;11.80;;;;;;;;;;5036897;28;20247;-63
2022/12/30 06:28:42;;;;;;;26.77;13.67;;;;;;;;;;5036808;28;20196;-63
2022/12/30 06:31:09;;;;;;;98.23;42.37;;;;;;;;;;5036327;28;20599;-65
2022/12/30 06:33:37;;;;;;;38.40;17.53;;;;;;;;;;5036380;28;20224;-65
2022/12/30 06:36:04;;;;;;;22.93;14.10;;;;;;;;;;5036128;28;20610;-64
2022/12/30 06:38:31;;;;;;;21.90;13.27;;;;;;;;;;5036640;28;20232;-65
2022/12/30 06:40:58;;;;;;;20.27;11.67;;;;;;;;;;5036284;28;20834;-64
2022/12/30 06:43:25;;;;;;;20.90;13.93;;;;;;;;;;5036227;28;20648;-64
2022/12/30 06:45:53;;;;;;;22.07;12.77;;;;;;;;;;5035918;28;20205;-64
2022/12/30 06:48:20;;;;;;;20.67;12.60;;;;;;;;;;5036185;28;20200;-64
2022/12/30 06:50:48;;;;;;;21.53;12.90;;;;;;;;;;5036125;28;20204;-64
2022/12/30 06:53:15;;;;;;;29.27;15.73;;;;;;;;;;5036246;28;20263;-64
2022/12/30 06:55:42;;;;;;;36.37;16.20;;;;;;;;;;5035923;28;20263;-64
2022/12/30 06:58:09;;;;;;;22.07;12.80;;;;;;;;;;5035882;28;20629;-62
2022/12/30 07:00:36;;;;;;;22.60;12.27;;;;;;;;;;5036310;28;20209;-64
2022/12/30 07:03:03;;;;;;;24.20;12.87;;;;;;;;;;5035829;28;20219;-64
2022/12/30 07:05:31;;;;;;;30.53;14.37;;;;;;;;;;5035673;28;20204;-66
2022/12/30 07:07:58;;;;;;;34.37;14.83;;;;;;;;;;5035733;28;20224;-65
2022/12/30 07:10:25;;;;;;;38.13;18.90;;;;;;;;;;5035875;28;20547;-64
2022/12/30 07:12:52;;;;;;;112.23;50.80;;;;;;;;;;5036005;28;20197;-64
2022/12/30 07:15:19;;;;;;;45.23;20.73;;;;;;;;;;5035723;28;20278;-65
2022/12/30 07:17:46;;;;;;;25.20;14.43;;;;;;;;;;5032149;28;20198;-64
2022/12/30 07:20:15;;;;;;;29.23;15.00;;;;;;;;;;5029686;28;20228;-65
2022/12/30 07:22:42;;;;;;;26.27;14.23;;;;;;;;;;5033186;28;20548;-62
2022/12/30 07:25:10;;;;;;;23.33;12.40;;;;;;;;;;5033038;28;20229;-65
2022/12/30 07:27:37;;;;;;;30.73;15.30;;;;;;;;;;5034643;28;20243;-61
2022/12/30 07:30:05;;;;;;;27.83;14.90;;;;;;;;;;5033039;28;20560;-65
2022/12/30 07:32:32;;;;;;;24.23;13.67;;;;;;;;;;5034714;28;20222;-66
2022/12/30 07:34:59;;;;;;;23.70;13.83;;;;;;;;;;5033856;28;20229;-66
2022/12/30 07:37:26;;;;;;;27.77;14.83;;;;;;;;;;5034637;28;20239;-66
2022/12/30 07:39:54;;;;;;;26.03;13.03;;;;;;;;;;5034238;28;20232;-69
2022/12/30 07:42:21;;;;;;;27.77;14.40;;;;;;;;;;5034393;28;20235;-69
2022/12/30 07:44:48;;;;;;;24.67;13.10;;;;;;;;;;5034149;28;20260;-68
2022/12/30 07:47:15;;;;;;;27.27;14.00;;;;;;;;;;5034191;28;20257;-67
2022/12/30 07:49:42;;;;;;;77.27;33.27;;;;;;;;;;5033474;28;20233;-68
2022/12/30 07:52:09;;;;;;;85.87;37.23;;;;;;;;;;5034567;28;20232;-66
2022/12/30 07:54:37;;;;;;;26.93;14.20;;;;;;;;;;5033953;28;20233;-66
2022/12/30 07:57:04;;;;;;;47.03;18.53;;;;;;;;;;5034414;28;20227;-65
2022/12/30 07:59:31;;;;;;;30.23;14.07;;;;;;;;;;5033976;28;20286;-65
2022/12/30 08:01:58;;;;;;;30.10;14.27;;;;;;;;;;5034441;28;20231;-64
2022/12/30 08:04:25;;;;;;;33.33;14.30;;;;;;;;;;5033112;28;20225;-70
2022/12/30 08:07:12;;;;;;;23.40;13.20;;;;;;;;;;5033558;28;20244;-68
2022/12/30 08:09:39;;;;;;;31.43;14.20;;;;;;;;;;5032556;28;20252;-66
2022/12/30 08:12:07;;;;;;;32.70;15.63;;;;;;;;;;5033831;28;20328;-64
2022/12/30 08:14:34;;;;;;;34.80;14.13;;;;;;;;;;5033231;28;20584;-65
2022/12/30 08:17:01;;;;;;;28.17;14.53;;;;;;;;;;5033680;28;20370;-66
2022/12/30 08:19:29;;;;;;;19.60;12.13;;;;;;;;;;5032784;28;20551;-64
2022/12/30 08:21:56;;;;;;;27.57;18.80;;;;;;;;;;5032913;28;20604;-64
2022/12/30 08:24:23;;;;;;;22.87;11.80;;;;;;;;;;5033323;28;20533;-64
2022/12/30 08:26:50;;;;;;;26.03;12.57;;;;;;;;;;5033705;28;20236;-66
2022/12/30 08:29:17;;;;;;;23.33;12.10;;;;;;;;;;5033059;28;20216;-67
2022/12/30 08:31:49;;;;;;;44.53;20.10;;;;;;;;;;5033311;28;20279;-65
2022/12/30 08:34:18;;;;;;;36.23;16.00;;;;;;;;;;5032815;28;20224;-66
2022/12/30 08:36:46;;;;;;;20.63;12.33;;;;;;;;;;5033416;28;20244;-65
2022/12/30 08:39:13;;;;;;;31.73;16.17;;;;;;;;;;5033246;28;20224;-63
2022/12/30 08:41:43;;;;;;;64.90;31.73;;;;;;;;;;5033266;28;20232;-65
2022/12/30 08:44:15;;;;;;;26.90;14.70;;;;;;;;;;5033473;28;20231;-66
2022/12/30 08:46:42;;;;;;;24.57;12.10;;;;;;;;;;5034203;28;20231;-66
2022/12/30 08:49:11;;;;;;;25.63;12.87;;;;;;;;;;5034018;28;20267;-67
2022/12/30 08:51:38;;;;;;;23.40;11.77;;;;;;;;;;5034107;28;20205;-66
2022/12/30 08:54:23;;;;;;;35.93;14.83;;;;;;;;;;5034032;28;20581;-65
2022/12/30 08:56:50;;;;;;;33.50;14.50;;;;;;;;;;5034137;28;20212;-64
2022/12/30 08:59:17;;;;;;;31.63;14.13;;;;;;;;;;5032577;28;20205;-66
2022/12/30 09:01:45;;;;;;;38.70;16.80;;;;;;;;;;5033299;28;20223;-65
2022/12/30 09:04:12;;;;;;;27.07;14.63;;;;;;;;;;5033782;28;20224;-67
2022/12/30 09:06:40;;;;;;;31.10;14.43;;;;;;;;;;5033324;28;20262;-66
2022/12/30 09:09:11;;;;;;;36.23;15.87;;;;;;;;;;5033755;28;20228;-68
2022/12/30 09:11:40;;;;;;;31.80;16.93;;;;;;;;;;5029007;28;20308;-71
2022/12/30 09:14:10;;;;;;;31.63;17.57;;;;;;;;;;5033456;28;20201;-73
2022/12/30 09:16:37;;;;;;;32.00;17.00;;;;;;;;;;5033458;28;20695;-68
2022/12/30 09:19:05;;;;;;;36.17;17.13;;;;;;;;;;5033815;28;20213;-69
2022/12/30 09:21:32;;;;;;;39.47;18.70;;;;;;;;;;5033345;28;20637;-67
2022/12/30 09:24:00;;;;;;;32.57;18.17;;;;;;;;;;5032120;28;20261;-70
2022/12/30 09:26:27;;;;;;;32.43;17.20;;;;;;;;;;5031210;28;20193;-68
2022/12/30 09:28:55;;;;;;;31.07;16.20;;;;;;;;;;5033084;28;20216;-68
2022/12/30 09:31:22;;;;;;;95.13;52.10;;;;;;;;;;5033642;28;20201;-66
2022/12/30 09:33:50;;;;;;;157.10;81.43;;;;;;;;;;5033433;28;20205;-68
2022/12/30 09:36:18;;;;;;;60.23;29.73;;;;;;;;;;5033001;28;20205;-66
2022/12/30 09:38:45;;;;;;;43.63;26.20;;;;;;;;;;5033238;28;20196;-66
2022/12/30 09:41:15;;;;;;;46.07;31.33;;;;;;;;;;5033242;28;20212;-67
2022/12/30 09:44:03;;;;;;;48.20;24.47;;;;;;;;;;5033156;28;20652;-68
2022/12/30 09:47:06;;;;;;;42.27;25.97;;;;;;;;;;5031858;28;20204;-67
2022/12/30 09:49:50;;;;;;;30.77;16.80;;;;;;;;;;5032734;28;20488;-67
2022/12/30 09:52:56;;;;;;;48.47;26.53;;;;;;;;;;5033033;28;20614;-68
2022/12/30 09:55:27;;;;;;;55.47;24.80;;;;;;;;;;5036407;28;20621;-65
2022/12/30 09:57:58;;;;;;;39.07;19.37;;;;;;;;;;5036050;28;20203;-67
2022/12/30 10:00:28;;;;;;;32.90;17.00;;;;;;;;;;5036058;28;20215;-66
2022/12/30 10:03:19;;;;;;;28.80;16.10;;;;;;;;;;5036167;28;20208;-65
2022/12/30 10:06:21;;;;;;;32.13;16.80;;;;;;;;;;5036506;28;20201;-65
2022/12/30 10:09:08;;;;;;;30.13;15.50;;;;;;;;;;5037066;28;20209;-65
2022/12/30 10:11:39;;;;;;;30.23;15.87;;;;;;;;;;5037249;28;20193;-68
2022/12/30 10:14:25;;;;;;;43.83;22.27;;;;;;;;;;5026881;28;20657;-67
2022/12/30 10:16:52;;;;;;;51.70;20.80;;;;;;;;;;5023916;28;20603;-66
2022/12/30 10:19:37;;;;;;;30.73;16.27;;;;;;;;;;5025759;28;20196;-64
2022/12/30 10:22:23;;;;;;;32.43;16.43;;;;;;;;;;5026290;28;20192;-66
2022/12/30 10:25:22;;;;;;;31.27;15.37;;;;;;;;;;5026396;28;20186;-66
2022/12/30 10:27:53;;;;;;;166.50;65.43;;;;;;;;;;5025668;28;20228;-66
2022/12/30 10:30:41;;;;;;;60.13;30.00;;;;;;;;;;5023297;28;20568;-69
2022/12/30 10:33:17;;;;;;;33.13;18.33;;;;;;;;;;5019040;28;20201;-67
2022/12/30 10:35:44;;;;;;;34.47;17.27;;;;;;;;;;5022953;28;20575;-67
2022/12/30 10:38:21;;;;;;;30.70;16.33;;;;;;;;;;5020725;28;20229;-65
2022/12/30 10:40:56;;;;;;;40.83;19.27;;;;;;;;;;5025699;28;20239;-67
2022/12/30 10:44:01;;;;;;;34.63;18.13;;;;;;;;;;5026544;28;20563;-66
2022/12/30 10:47:06;;;;;;;25.13;15.17;;;;;;;;;;5022576;28;20255;-66
2022/12/30 10:50:11;;;;;;;41.03;20.27;;;;;;;;;;5023307;28;20513;-66
2022/12/30 10:52:38;;;;;;;27.07;15.10;;;;;;;;;;5024935;28;20197;-66
2022/12/30 10:55:27;;;;;;;32.33;16.53;;;;;;;;;;5024194;28;20197;-70
2022/12/30 10:58:00;;;;;;;28.30;14.80;;;;;;;;;;5025675;28;20247;-66
2022/12/30 11:00:29;;;;;;;25.23;14.93;;;;;;;;;;5024418;28;20194;-65
2022/12/30 11:03:03;;;;;;;30.17;15.60;;;;;;;;;;5023951;28;20202;-65
2022/12/30 11:05:34;;;;;;;34.40;15.37;;;;;;;;;;5023286;28;20197;-66
2022/12/30 11:08:19;;;;;;;39.70;17.43;;;;;;;;;;5021343;28;20224;-66
2022/12/30 11:11:01;;;;;;;43.97;18.73;;;;;;;;;;5019742;28;20228;-67
2022/12/30 11:16:15;;;;;;;49.33;22.73;;;;;;;;;;5034444;28;20221;-66
2022/12/30 11:18:45;;;;;;;28.03;14.73;;;;;;;;;;5021750;28;20257;-65
2022/12/30 11:21:23;;;;;;;25.50;14.50;;;;;;;;;;5028551;28;20228;-67
2022/12/30 11:23:53;;;;;;;28.10;15.13;;;;;;;;;;5023254;28;20552;-66
2022/12/30 11:26:21;;;;;;;33.67;15.50;;;;;;;;;;5022593;28;20193;-64
2022/12/30 11:28:53;;;;;;;25.33;13.47;;;;;;;;;;5021743;28;20221;-65
2022/12/30 11:31:21;;;;;;;25.40;13.10;;;;;;;;;;5024431;28;20208;-67
2022/12/30 11:33:52;;;;;;;48.33;21.87;;;;;;;;;;5023276;28;20194;-68
2022/12/30 11:36:31;;;;;;;30.20;14.70;;;;;;;;;;5024700;28;20275;-66
2022/12/30 11:39:05;;;;;;;22.47;12.47;;;;;;;;;;5024870;28;20284;-67
2022/12/30 11:41:34;;;;;;;24.83;13.47;;;;;;;;;;5023954;28;20228;-68
2022/12/30 11:44:01;;;;;;;24.37;12.70;;;;;;;;;;5030385;28;20205;-68
2022/12/30 11:46:32;;;;;;;27.20;13.87;;;;;;;;;;5028634;28;20208;-69
2022/12/30 11:49:02;;;;;;;27.90;13.70;;;;;;;;;;5034797;28;20544;-69
2022/12/30 11:51:32;;;;;;;26.05;13.38;;;;;;;;;;5033901;28;20200;-67
2022/12/30 11:54:06;;;;;;;36.07;18.73;;;;;;;;;;5024652;28;20199;-66
2022/12/30 11:56:34;;;;;;;20.67;12.50;;;;;;;;;;5030249;28;20201;-66
2022/12/30 11:59:09;;;;;;;21.07;11.57;;;;;;;;;;5028363;28;20197;-64
2022/12/30 12:01:45;;;;;;;19.65;11.50;;;;;;;;;;5034085;28;20579;-67
2022/12/30 12:04:40;;;;;;;26.20;12.37;;;;;;;;;;5034716;28;20223;-68
2022/12/30 12:07:17;;;;;;;25.97;11.33;;;;;;;;;;5023072;28;20197;-66
2022/12/30 12:09:50;;;;;;;23.10;11.37;;;;;;;;;;5020124;28;20184;-66
2022/12/30 12:12:19;;;;;;;24.77;11.93;;;;;;;;;;5034486;28;20197;-67
2022/12/30 12:14:55;;;;;;;43.35;18.67;;;;;;;;;;5033700;28;20204;-65
2022/12/30 12:17:45;;;;;;;25.20;12.20;;;;;;;;;;5034455;28;20224;-66
2022/12/30 12:20:21;;;;;;;18.83;10.18;;;;;;;;;;5026679;28;20290;-67
2022/12/30 12:23:06;;;;;;;20.40;9.63;;;;;;;;;;5022812;28;20212;-67
2022/12/30 12:25:55;;;;;;;26.20;12.00;;;;;;;;;;5021374;28;20189;-68
2022/12/30 12:28:30;;;;;;;23.70;11.03;;;;;;;;;;5016200;28;20597;-70
2022/12/30 12:31:06;;;;;;;24.60;10.60;;;;;;;;;;5029380;28;20197;-73
2022/12/30 12:33:41;;;;;;;79.57;33.83;;;;;;;;;;5033237;28;20193;-71
2022/12/30 12:36:35;;;;;;;41.70;16.38;;;;;;;;;;5021824;28;20255;-73
2022/12/30 12:39:11;;;;;;;26.10;12.00;;;;;;;;;;5023604;28;20241;-71
2022/12/30 12:41:51;;;;;;;23.67;10.90;;;;;;;;;;5022558;28;20194;-69
2022/12/30 12:44:52;;;;;;;24.10;9.67;;;;;;;;;;5023356;28;20185;-70
2022/12/30 12:47:27;;;;;;;26.48;10.90;;;;;;;;;;5021985;28;20208;-71
2022/12/30 12:50:17;;;;;;;23.00;10.10;;;;;;;;;;5027756;28;20223;-70
2022/12/30 12:53:09;;;;;;;26.55;10.68;;;;;;;;;;5022512;28;20312;-68
2022/12/30 12:56:23;;;;;;;75.67;22.23;;;;;;;;;;5022996;28;20194;-66
2022/12/30 12:58:59;;;;;;;20.33;10.25;;;;;;;;;;5021413;28;20211;-73
2022/12/30 13:01:42;;;;;;;18.63;9.00;;;;;;;;;;5022828;28;20594;-71
2022/12/30 13:04:39;;;;;;;17.10;8.43;;;;;;;;;;5023333;28;20197;-68
2022/12/30 13:07:17;;;;;;;19.77;10.00;;;;;;;;;;5022456;28;20691;-69
2022/12/30 13:10:45;;;;;;;23.40;9.38;;;;;;;;;;5023774;28;20191;-67
2022/12/30 13:14:04;;;;;;;65.65;27.02;;;;;;;;;;4982810;28;20393;-70
2022/12/30 13:16:38;;;;;;;22.77;11.15;;;;;;;;;;4943816;28;20706;-67
2022/12/30 13:19:11;;;;;;;22.63;10.93;;;;;;;;;;4966021;28;20750;-66
2022/12/30 13:21:38;;;;;;;14.48;8.52;;;;;;;;;;4972765;28;20285;-72
2022/12/30 13:24:06;;;;;;;25.55;9.65;;;;;;;;;;4961448;28;20225;-65
2022/12/30 13:26:34;;;;;;;21.85;9.48;;;;;;;;;;4962440;28;20226;-68
2022/12/30 13:29:03;;;;;;;25.30;9.77;;;;;;;;;;4986931;28;20245;-68
2022/12/30 13:31:45;;;;;;;22.33;8.88;;;;;;;;;;4982567;28;20225;-66
2022/12/30 13:34:24;;;;;;;42.05;17.55;;;;;;;;;;4987099;28;20292;-74
2022/12/30 13:37:13;;;;;;;25.63;10.15;;;;;;;;;;4984010;28;20316;-68
2022/12/30 13:39:52;;;;;;;16.88;8.38;;;;;;;;;;4980905;28;20234;-67
2022/12/30 13:42:53;;;;;;;22.63;9.23;;;;;;;;;;4973155;28;20266;-69
2022/12/30 13:45:24;;;;;;;21.90;9.30;;;;;;;;;;5025175;28;20562;-67
2022/12/30 13:48:06;;;;;;;18.65;8.20;;;;;;;;;;5024051;28;20232;-67
2022/12/30 13:50:34;;;;;;;19.58;7.65;;;;;;;;;;5024298;28;20282;-67
2022/12/30 13:53:03;;;;;;;24.97;9.90;;;;;;;;;;5024083;28;20577;-65
2022/12/30 13:55:49;;;;;;;34.70;13.18;;;;;;;;;;5020152;28;20674;-73
2022/12/30 13:58:34;;;;;;;22.48;8.90;;;;;;;;;;5027884;28;20220;-66
2022/12/30 14:01:35;;;;;;;18.40;8.07;;;;;;;;;;5023336;28;20216;-68
2022/12/30 14:04:10;;;;;;;26.30;9.18;;;;;;;;;;4971368;28;20234;-68
2022/12/30 14:06:51;;;;;;;22.95;9.38;;;;;;;;;;4985340;28;20218;-65
2022/12/30 14:09:21;;;;;;;29.30;10.32;;;;;;;;;;4982118;28;20321;-72
2022/12/30 14:12:04;;;;;;;22.98;9.57;;;;;;;;;;4986324;28;20218;-68
2022/12/30 14:14:39;;;;;;;477.02;153.57;;;;;;;;;;4983135;28;20249;-66
2022/12/30 14:17:12;;;;;;;204.82;73.45;;;;;;;;;;4986103;28;20679;-67
2022/12/30 14:20:04;;;;;;;45.10;18.25;;;;;;;;;;4985327;28;20221;-71
2022/12/30 14:22:55;;;;;;;20.57;9.80;;;;;;;;;;5004903;28;20222;-64
2022/12/30 14:25:32;;;;;;;27.73;10.07;;;;;;;;;;4989317;28;21142;-65
2022/12/30 14:28:20;;;;;;;24.70;8.67;;;;;;;;;;4980847;28;20309;-65
2022/12/30 14:30:54;;;;;;;21.33;8.30;;;;;;;;;;4985636;28;20214;-64
2022/12/30 14:33:38;;;;;;;18.70;7.37;;;;;;;;;;4970632;28;20234;-65
2022/12/30 14:36:13;;;;;;;32.63;11.73;;;;;;;;;;4985912;28;20226;-68
2022/12/30 14:38:43;;;;;;;20.13;9.37;;;;;;;;;;4947159;28;1212858;-63
2022/12/30 14:41:19;;;;;;;20.83;8.43;;;;;;;;;;5019389;28;20232;-67
2022/12/30 14:44:06;;;;;;;24.10;9.20;;;;;;;;;;5025901;28;20212;-67
2022/12/30 14:46:43;;;;;;;21.83;8.03;;;;;;;;;;5024105;28;20221;-66
2022/12/30 14:49:26;;;;;;;24.17;6.67;;;;;;;;;;5022660;28;20237;-67
2022/12/30 14:52:15;;;;;;;26.25;8.98;;;;;;;;;;5023791;28;20672;-69
2022/12/30 14:54:59;;;;;;;26.03;8.73;;;;;;;;;;5024797;28;20220;-71
2022/12/30 14:57:28;;;;;;;58.77;25.70;;;;;;;;;;5027775;28;20231;-67
2022/12/30 15:00:08;;;;;;;29.17;12.27;;;;;;;;;;5027275;28;20213;-64
2022/12/30 15:02:47;;;;;;;18.23;8.20;;;;;;;;;;5023413;28;20316;-62
2022/12/30 15:05:37;;;;;;;16.15;6.53;;;;;;;;;;5025086;28;20355;-71
2022/12/30 15:08:07;;;;;;;16.55;6.00;;;;;;;;;;5022346;28;20224;-69
2022/12/30 15:10:43;;;;;;;14.32;5.88;;;;;;;;;;5024479;28;20681;-68
2022/12/30 15:13:13;;;;;;;20.30;6.57;;;;;;;;;;5023525;28;20323;-68
2022/12/30 15:15:45;;;;;;;17.53;6.10;;;;;;;;;;5023253;28;20521;-68
2022/12/30 15:18:18;;;;;;;20.97;7.33;;;;;;;;;;5022113;28;20681;-67
2022/12/30 15:20:45;;;;;;;17.33;6.10;;;;;;;;;;5023689;28;20576;-68
2022/12/30 15:23:15;;;;;;;14.87;5.80;;;;;;;;;;5023998;28;20217;-68
2022/12/30 15:25:44;;;;;;;17.50;6.00;;;;;;;;;;5023339;28;20221;-66
2022/12/30 15:28:11;;;;;;;15.67;5.33;;;;;;;;;;5021461;28;20251;-68
2022/12/30 15:30:38;;;;;;;13.70;5.03;;;;;;;;;;5022052;28;20228;-67
2022/12/30 15:33:09;;;;;;;127.22;48.53;;;;;;;;;;5023966;28;20548;-64
2022/12/30 15:35:38;;;;;;;162.00;57.53;;;;;;;;;;5022780;28;20285;-63
2022/12/30 15:38:10;;;;;;;50.20;19.03;;;;;;;;;;5022150;28;20307;-64
2022/12/30 15:40:40;;;;;;;22.27;8.37;;;;;;;;;;5020058;28;20250;-62
2022/12/30 15:43:12;;;;;;;20.13;8.43;;;;;;;;;;5003507;28;20257;-64
2022/12/30 15:45:42;;;;;;;20.17;8.60;;;;;;;;;;5023078;28;20725;-63
2022/12/30 15:48:21;;;;;;;22.73;8.27;;;;;;;;;;5020535;28;20220;-65